East Orange, New Jersey
Current Conditions -  °F | °C
As of 3:51 AM on Sunday 26 Oct 2014 (Local Time) from KEWR Reporting Station
Few Clouds Few Clouds  
Wind Chill: 57°   Ceiling: Unl
Heat Index: 57°   Visibility: 10mi
Dew Point: 45°   Wind: 7mph
Humidity: 64%   Direction: 270°W
Pressure: 29.56"   Gusts: NA
Location:  40.76°N, 74.21°W
Report Text: KEWR 260751Z 27006KT 10SM FEW040 14/07 A2956 RMK AO2 SLP010 T01390072
Loading
Personal Weather Stations






























Interactive Weather Map
Tropical Storm Tracking
New forecast layout! Learn more

10-Day Weather Forecast

Advertisements
Track Severe Weather on mobile